sensor_id;sensor_type;location;lat;lon;timestamp;pressure;altitude;pressure_sealevel;temperature;humidity
43153;BME280;28756;49.064;9.290;2023-04-19T00:00:41;99646.97;;;8.27;100.00
43153;BME280;28756;49.064;9.290;2023-04-19T00:03:09;99655.28;;;8.11;100.00
43153;BME280;28756;49.064;9.290;2023-04-19T00:05:35;99653.59;;;8.10;100.00
43153;BME280;28756;49.064;9.290;2023-04-19T00:08:04;99653.66;;;8.09;100.00
43153;BME280;28756;49.064;9.290;2023-04-19T00:10:30;99657.19;;;8.06;100.00
43153;BME280;28756;49.064;9.290;2023-04-19T00:12:56;99662.25;;;8.09;100.00
43153;BME280;28756;49.064;9.290;2023-04-19T00:15:21;99651.84;;;8.11;100.00
43153;BME280;28756;49.064;9.290;2023-04-19T00:17:47;99649.44;;;8.06;100.00
43153;BME280;28756;49.064;9.290;2023-04-19T00:20:13;99658.72;;;8.12;100.00
43153;BME280;28756;49.064;9.290;2023-04-19T00:22:39;99662.47;;;8.03;100.00
43153;BME280;28756;49.064;9.290;2023-04-19T00:25:05;99656.91;;;8.14;100.00
43153;BME280;28756;49.064;9.290;2023-04-19T00:27:31;99656.19;;;8.10;100.00
43153;BME280;28756;49.064;9.290;2023-04-19T00:29:57;99665.81;;;8.06;100.00
43153;BME280;28756;49.064;9.290;2023-04-19T00:32:23;99657.78;;;8.14;100.00
43153;BME280;28756;49.064;9.290;2023-04-19T00:34:49;99661.63;;;8.02;100.00
43153;BME280;28756;49.064;9.290;2023-04-19T00:37:15;99658.91;;;8.07;100.00
43153;BME280;28756;49.064;9.290;2023-04-19T00:39:41;99660.63;;;8.06;100.00
43153;BME280;28756;49.064;9.290;2023-04-19T00:42:06;99666.50;;;8.12;100.00
43153;BME280;28756;49.064;9.290;2023-04-19T00:44:32;99665.47;;;8.16;100.00
43153;BME280;28756;49.064;9.290;2023-04-19T00:46:59;99663.34;;;8.03;100.00
43153;BME280;28756;49.064;9.290;2023-04-19T00:49:26;99661.41;;;8.09;100.00
43153;BME280;28756;49.064;9.290;2023-04-19T00:51:52;99663.94;;;8.10;100.00
43153;BME280;28756;49.064;9.290;2023-04-19T00:54:19;99661.56;;;8.04;100.00
43153;BME280;28756;49.064;9.290;2023-04-19T00:56:45;99661.56;;;8.04;100.00
43153;BME280;28756;49.064;9.290;2023-04-19T00:59:13;99655.50;;;8.05;100.00
43153;BME280;28756;49.064;9.290;2023-04-19T01:01:39;99653.97;;;7.99;100.00
43153;BME280;28756;49.064;9.290;2023-04-19T01:04:07;99656.47;;;8.02;100.00
43153;BME280;28756;49.064;9.290;2023-04-19T01:06:34;99655.50;;;8.05;100.00
43153;BME280;28756;49.064;9.290;2023-04-19T01:09:00;99652.13;;;8.03;100.00
43153;BME280;28756;49.064;9.290;2023-04-19T01:11:27;99656.56;;;7.99;100.00
43153;BME280;28756;49.064;9.290;2023-04-19T01:13:54;99648.69;;;8.02;100.00
43153;BME280;28756;49.064;9.290;2023-04-19T01:16:20;99643.38;;;8.05;100.00
43153;BME280;28756;49.064;9.290;2023-04-19T01:18:46;99645.13;;;8.05;100.00
43153;BME280;28756;49.064;9.290;2023-04-19T01:21:12;99634.84;;;8.03;100.00
43153;BME280;28756;49.064;9.290;2023-04-19T01:23:37;99646.94;;;8.03;100.00
43153;BME280;28756;49.064;9.290;2023-04-19T01:26:04;99639.44;;;7.95;100.00
43153;BME280;28756;49.064;9.290;2023-04-19T01:28:31;99640.13;;;8.00;100.00
43153;BME280;28756;49.064;9.290;2023-04-19T01:30:57;99637.63;;;7.97;100.00
43153;BME280;28756;49.064;9.290;2023-04-19T01:33:22;99633.38;;;7.96;100.00
43153;BME280;28756;49.064;9.290;2023-04-19T01:35:49;99631.63;;;7.97;100.00
43153;BME280;28756;49.064;9.290;2023-04-19T01:38:16;99625.53;;;7.98;100.00
43153;BME280;28756;49.064;9.290;2023-04-19T01:40:42;99623.69;;;8.01;100.00
43153;BME280;28756;49.064;9.290;2023-04-19T01:43:11;99617.88;;;7.95;100.00
43153;BME280;28756;49.064;9.290;2023-04-19T01:45:37;99620.13;;;8.04;100.00
43153;BME280;28756;49.064;9.290;2023-04-19T01:48:03;99615.91;;;8.01;100.00
43153;BME280;28756;49.064;9.290;2023-04-19T01:50:31;99611.63;;;8.00;100.00
43153;BME280;28756;49.064;9.290;2023-04-19T01:52:58;99608.81;;;8.06;100.00
43153;BME280;28756;49.064;9.290;2023-04-19T01:55:25;99609.72;;;8.05;100.00
43153;BME280;28756;49.064;9.290;2023-04-19T01:57:50;99608.22;;;8.00;100.00
43153;BME280;28756;49.064;9.290;2023-04-19T02:00:18;99612.44;;;8.02;100.00
43153;BME280;28756;49.064;9.290;2023-04-19T02:02:44;99612.09;;;7.86;100.00
43153;BME280;28756;49.064;9.290;2023-04-19T02:05:10;99612.97;;;7.87;100.00
43153;BME280;28756;49.064;9.290;2023-04-19T02:07:36;99602.94;;;7.78;100.00
43153;BME280;28756;49.064;9.290;2023-04-19T02:10:03;99606.16;;;7.84;100.00
43153;BME280;28756;49.064;9.290;2023-04-19T02:12:29;99604.50;;;7.82;100.00
43153;BME280;28756;49.064;9.290;2023-04-19T02:14:59;99599.50;;;7.77;100.00
43153;BME280;28756;49.064;9.290;2023-04-19T02:17:27;99600.28;;;7.79;100.00
43153;BME280;28756;49.064;9.290;2023-04-19T02:19:53;99596.16;;;7.73;100.00
43153;BME280;28756;49.064;9.290;2023-04-19T02:22:19;99594.59;;;7.69;100.00
43153;BME280;28756;49.064;9.290;2023-04-19T02:24:45;99601.31;;;7.73;100.00
43153;BME280;28756;49.064;9.290;2023-04-19T02:27:12;99585.75;;;7.75;100.00
43153;BME280;28756;49.064;9.290;2023-04-19T02:29:39;99581.31;;;7.79;100.00
43153;BME280;28756;49.064;9.290;2023-04-19T02:32:05;99575.09;;;7.84;100.00
43153;BME280;28756;49.064;9.290;2023-04-19T02:34:32;99577.72;;;7.83;100.00
43153;BME280;28756;49.064;9.290;2023-04-19T02:36:58;99578.72;;;7.79;100.00
43153;BME280;28756;49.064;9.290;2023-04-19T02:39:23;99577.03;;;7.78;100.00
43153;BME280;28756;49.064;9.290;2023-04-19T02:41:49;99579.69;;;7.76;100.00
43153;BME280;28756;49.064;9.290;2023-04-19T02:44:15;99570.16;;;7.77;100.00
43153;BME280;28756;49.064;9.290;2023-04-19T02:46:48;99568.47;;;7.75;100.00
43153;BME280;28756;49.064;9.290;2023-04-19T02:49:15;99576.22;;;7.77;100.00
43153;BME280;28756;49.064;9.290;2023-04-19T02:51:40;99584.97;;;7.73;100.00
43153;BME280;28756;49.064;9.290;2023-04-19T02:54:06;99584.97;;;7.73;100.00
43153;BME280;28756;49.064;9.290;2023-04-19T02:56:32;99585.13;;;7.68;100.00
43153;BME280;28756;49.064;9.290;2023-04-19T02:59:01;99580.09;;;7.64;100.00
43153;BME280;28756;49.064;9.290;2023-04-19T03:01:27;99576.72;;;7.62;100.00
43153;BME280;28756;49.064;9.290;2023-04-19T03:03:53;99581.13;;;7.59;100.00
43153;BME280;28756;49.064;9.290;2023-04-19T03:06:19;99578.75;;;7.53;100.00
43153;BME280;28756;49.064;9.290;2023-04-19T03:08:45;99578.53;;;7.59;100.00
43153;BME280;28756;49.064;9.290;2023-04-19T03:11:12;99572.72;;;7.53;100.00
43153;BME280;28756;49.064;9.290;2023-04-19T03:13:37;99572.72;;;7.53;100.00
43153;BME280;28756;49.064;9.290;2023-04-19T03:16:05;99574.47;;;7.52;100.00
43153;BME280;28756;49.064;9.290;2023-04-19T03:18:31;99569.47;;;7.46;100.00
43153;BME280;28756;49.064;9.290;2023-04-19T03:20:57;99562.78;;;7.40;100.00
43153;BME280;28756;49.064;9.290;2023-04-19T03:23:24;99563.03;;;7.33;100.00
43153;BME280;28756;49.064;9.290;2023-04-19T03:25:50;99563.19;;;7.28;100.00
43153;BME280;28756;49.064;9.290;2023-04-19T03:28:16;99561.63;;;7.22;100.00
43153;BME280;28756;49.064;9.290;2023-04-19T03:30:42;99574.00;;;7.14;100.00
43153;BME280;28756;49.064;9.290;2023-04-19T03:33:07;99567.22;;;7.10;100.00
43153;BME280;28756;49.064;9.290;2023-04-19T03:35:33;99571.75;;;7.03;100.00
43153;BME280;28756;49.064;9.290;2023-04-19T03:37:59;99578.81;;;6.98;100.00
43153;BME280;28756;49.064;9.290;2023-04-19T03:40:24;99576.47;;;6.90;100.00
43153;BME280;28756;49.064;9.290;2023-04-19T03:42:50;99565.38;;;6.87;100.00
43153;BME280;28756;49.064;9.290;2023-04-19T03:45:16;99566.28;;;6.86;100.00
43153;BME280;28756;49.064;9.290;2023-04-19T03:47:42;99568.94;;;6.83;100.00
43153;BME280;28756;49.064;9.290;2023-04-19T03:50:08;99567.47;;;6.75;100.00
43153;BME280;28756;49.064;9.290;2023-04-19T03:52:34;99563.09;;;6.77;100.00
43153;BME280;28756;49.064;9.290;2023-04-19T03:55:00;99562.56;;;6.66;100.00
43153;BME280;28756;49.064;9.290;2023-04-19T03:57:25;99565.41;;;6.58;100.00
43153;BME280;28756;49.064;9.290;2023-04-19T03:59:51;99571.69;;;6.50;100.00
43153;BME280;28756;49.064;9.290;2023-04-19T04:02:17;99570.34;;;6.36;100.00
43153;BME280;28756;49.064;9.290;2023-04-19T04:04:42;99568.91;;;6.27;100.00
43153;BME280;28756;49.064;9.290;2023-04-19T04:07:08;99574.28;;;6.20;100.00
43153;BME280;28756;49.064;9.290;2023-04-19T04:09:34;99579.69;;;6.10;100.00
43153;BME280;28756;49.064;9.290;2023-04-19T04:11:59;99572.88;;;6.08;100.00
43153;BME280;28756;49.064;9.290;2023-04-19T04:14:26;99574.63;;;6.07;100.00
43153;BME280;28756;49.064;9.290;2023-04-19T04:16:51;99577.44;;;5.98;100.00
43153;BME280;28756;49.064;9.290;2023-04-19T04:19:17;99587.00;;;5.94;100.00
43153;BME280;28756;49.064;9.290;2023-04-19T04:25:24;99582.97;;;5.84;100.00
43153;BME280;28756;49.064;9.290;2023-04-19T04:27:50;99587.38;;;5.80;100.00
43153;BME280;28756;49.064;9.290;2023-04-19T04:30:17;99587.56;;;5.73;100.00
43153;BME280;28756;49.064;9.290;2023-04-19T04:32:42;99590.34;;;5.65;100.00
43153;BME280;28756;49.064;9.290;2023-04-19T04:35:09;99595.69;;;5.57;100.00
43153;BME280;28756;49.064;9.290;2023-04-19T04:37:36;99594.16;;;5.50;100.00
43153;BME280;28756;49.064;9.290;2023-04-19T04:40:03;99589.25;;;5.41;100.00
43153;BME280;28756;49.064;9.290;2023-04-19T04:42:32;99587.53;;;5.41;100.00
43153;BME280;28756;49.064;9.290;2023-04-19T04:44:58;99587.75;;;5.32;100.00
43153;BME280;28756;49.064;9.290;2023-04-19T04:47:30;99600.59;;;5.33;100.00
43153;BME280;28756;49.064;9.290;2023-04-19T04:49:57;99595.59;;;5.29;100.00
43153;BME280;28756;49.064;9.290;2023-04-19T04:52:23;99595.59;;;5.29;100.00
43153;BME280;28756;49.064;9.290;2023-04-19T04:54:48;99603.38;;;5.26;100.00
43153;BME280;28756;49.064;9.290;2023-04-19T04:57:14;99606.78;;;5.26;100.00
43153;BME280;28756;49.064;9.290;2023-04-19T04:59:40;99605.91;;;5.27;100.00
43153;BME280;28756;49.064;9.290;2023-04-19T05:02:06;99601.91;;;5.50;100.00
43153;BME280;28756;49.064;9.290;2023-04-19T05:04:32;99603.97;;;5.72;100.00
43153;BME280;28756;49.064;9.290;2023-04-19T05:06:57;99593.88;;;5.94;100.00
43153;BME280;28756;49.064;9.290;2023-04-19T05:09:23;99589.81;;;6.18;100.00
43153;BME280;28756;49.064;9.290;2023-04-19T05:11:49;99582.75;;;6.55;100.00
43153;BME280;28756;49.064;9.290;2023-04-19T05:14:15;99585.56;;;6.75;100.00
43153;BME280;28756;49.064;9.290;2023-04-19T05:16:41;99577.97;;;7.24;100.00
43153;BME280;28756;49.064;9.290;2023-04-19T05:19:06;99576.88;;;7.05;100.00
43153;BME280;28756;49.064;9.290;2023-04-19T05:21:33;99570.69;;;7.36;100.00
43153;BME280;28756;49.064;9.290;2023-04-19T05:24:05;99573.97;;;7.41;100.00
43153;BME280;28756;49.064;9.290;2023-04-19T05:26:31;99564.31;;;7.71;100.00
43153;BME280;28756;49.064;9.290;2023-04-19T05:28:57;99568.00;;;7.89;100.00
43153;BME280;28756;49.064;9.290;2023-04-19T05:31:23;99559.34;;;8.14;100.00
43153;BME280;28756;49.064;9.290;2023-04-19T05:33:49;99554.78;;;8.43;100.00
43153;BME280;28756;49.064;9.290;2023-04-19T05:36:14;99566.97;;;7.94;100.00
43153;BME280;28756;49.064;9.290;2023-04-19T05:38:40;99558.94;;;8.25;100.00
43153;BME280;28756;49.064;9.290;2023-04-19T05:41:06;99558.53;;;8.36;100.00
43153;BME280;28756;49.064;9.290;2023-04-19T05:43:32;99560.47;;;8.07;100.00
43153;BME280;28756;49.064;9.290;2023-04-19T05:45:57;99567.94;;;8.15;100.00
43153;BME280;28756;49.064;9.290;2023-04-19T05:48:25;99553.69;;;8.73;100.00
43153;BME280;28756;49.064;9.290;2023-04-19T05:50:51;99549.13;;;8.57;100.00
43153;BME280;28756;49.064;9.290;2023-04-19T05:53:19;99547.69;;;8.48;100.00
43153;BME280;28756;49.064;9.290;2023-04-19T05:55:45;99552.53;;;8.58;100.00
43153;BME280;28756;49.064;9.290;2023-04-19T05:58:12;99554.88;;;8.86;100.00
43153;BME280;28756;49.064;9.290;2023-04-19T06:00:38;99547.28;;;9.24;100.00
43153;BME280;28756;49.064;9.290;2023-04-19T06:03:04;99542.91;;;9.47;100.00
43153;BME280;28756;49.064;9.290;2023-04-19T06:05:32;99544.63;;;9.67;100.00
43153;BME280;28756;49.064;9.290;2023-04-19T06:07:58;99551.03;;;8.96;100.00
43153;BME280;28756;49.064;9.290;2023-04-19T06:10:24;99535.03;;;9.28;100.00
43153;BME280;28756;49.064;9.290;2023-04-19T06:12:50;99537.84;;;9.23;100.00
43153;BME280;28756;49.064;9.290;2023-04-19T06:15:15;99532.03;;;10.17;100.00
43153;BME280;28756;49.064;9.290;2023-04-19T06:17:42;99536.84;;;10.45;100.00
43153;BME280;28756;49.064;9.290;2023-04-19T06:20:08;99534.63;;;10.17;100.00
43153;BME280;28756;49.064;9.290;2023-04-19T06:22:41;99535.81;;;10.49;100.00
43153;BME280;28756;49.064;9.290;2023-04-19T06:25:07;99534.94;;;10.30;100.00
43153;BME280;28756;49.064;9.290;2023-04-19T06:27:35;99535.13;;;9.87;100.00
43153;BME280;28756;49.064;9.290;2023-04-19T06:30:01;99542.84;;;10.07;100.00
43153;BME280;28756;49.064;9.290;2023-04-19T06:32:27;99543.88;;;10.43;100.00
43153;BME280;28756;49.064;9.290;2023-04-19T06:34:55;99530.59;;;10.49;100.00
43153;BME280;28756;49.064;9.290;2023-04-19T06:37:24;99534.47;;;10.77;100.00
43153;BME280;28756;49.064;9.290;2023-04-19T06:39:52;99530.91;;;10.61;100.00
43153;BME280;28756;49.064;9.290;2023-04-19T06:42:18;99526.69;;;11.30;100.00
43153;BME280;28756;49.064;9.290;2023-04-19T06:44:45;99530.97;;;11.31;100.00
43153;BME280;28756;49.064;9.290;2023-04-19T06:47:11;99523.69;;;11.89;100.00
43153;BME280;28756;49.064;9.290;2023-04-19T06:49:37;99525.53;;;11.53;100.00
43153;BME280;28756;49.064;9.290;2023-04-19T06:52:03;99523.75;;;11.53;100.00
43153;BME280;28756;49.064;9.290;2023-04-19T06:54:28;99528.81;;;11.21;100.00
43153;BME280;28756;49.064;9.290;2023-04-19T06:56:57;99522.63;;;11.42;100.00
43153;BME280;28756;49.064;9.290;2023-04-19T06:59:23;99523.53;;;11.41;100.00
43153;BME280;28756;49.064;9.290;2023-04-19T07:01:52;99525.84;;;11.47;100.00
43153;BME280;28756;49.064;9.290;2023-04-19T07:04:21;99519.66;;;11.32;100.00
43153;BME280;28756;49.064;9.290;2023-04-19T07:06:48;99517.81;;;11.34;100.00
43153;BME280;28756;49.064;9.290;2023-04-19T07:09:15;99510.94;;;11.66;100.00
43153;BME280;28756;49.064;9.290;2023-04-19T07:11:46;99511.91;;;11.48;100.00
43153;BME280;28756;49.064;9.290;2023-04-19T07:14:13;99513.56;;;10.79;100.00
43153;BME280;28756;49.064;9.290;2023-04-19T07:16:38;99507.78;;;11.26;100.00
43153;BME280;28756;49.064;9.290;2023-04-19T07:19:04;99513.56;;;10.61;100.00
43153;BME280;28756;49.064;9.290;2023-04-19T07:21:30;99518.75;;;10.04;100.00
43153;BME280;28756;49.064;9.290;2023-04-19T07:24:00;99513.50;;;10.63;100.00
43153;BME280;28756;49.064;9.290;2023-04-19T07:26:26;99518.66;;;10.99;100.00
43153;BME280;28756;49.064;9.290;2023-04-19T07:28:51;99518.22;;;10.54;100.00
43153;BME280;28756;49.064;9.290;2023-04-19T07:31:18;99517.22;;;10.57;100.00
43153;BME280;28756;49.064;9.290;2023-04-19T07:33:44;99505.50;;;10.85;100.00
43153;BME280;28756;49.064;9.290;2023-04-19T07:36:18;99512.34;;;10.68;100.00
43153;BME280;28756;49.064;9.290;2023-04-19T07:38:45;99510.91;;;10.98;100.00
43153;BME280;28756;49.064;9.290;2023-04-19T07:41:13;99515.66;;;11.25;100.00
43153;BME280;28756;49.064;9.290;2023-04-19T07:43:39;99517.34;;;11.26;100.00
43153;BME280;28756;49.064;9.290;2023-04-19T07:46:10;99516.00;;;10.64;100.00
43153;BME280;28756;49.064;9.290;2023-04-19T07:48:36;99521.88;;;11.40;100.00
43153;BME280;28756;49.064;9.290;2023-04-19T07:51:16;99514.28;;;10.82;100.00
43153;BME280;28756;49.064;9.290;2023-04-19T07:53:42;99510.63;;;11.04;100.00
43153;BME280;28756;49.064;9.290;2023-04-19T07:56:10;99505.94;;;11.28;100.00
43153;BME280;28756;49.064;9.290;2023-04-19T07:58:36;99505.13;;;11.10;100.00
43153;BME280;28756;49.064;9.290;2023-04-19T08:01:08;99499.72;;;11.13;100.00
43153;BME280;28756;49.064;9.290;2023-04-19T08:03:34;99502.00;;;10.67;100.00
43153;BME280;28756;49.064;9.290;2023-04-19T08:06:02;99507.16;;;10.68;100.00
43153;BME280;28756;49.064;9.290;2023-04-19T08:08:28;99513.06;;;9.95;100.00
43153;BME280;28756;49.064;9.290;2023-04-19T08:10:53;99506.31;;;9.72;100.00
43153;BME280;28756;49.064;9.290;2023-04-19T08:13:20;99508.75;;;9.75;100.00
43153;BME280;28756;49.064;9.290;2023-04-19T08:15:49;99509.75;;;9.73;100.00
43153;BME280;28756;49.064;9.290;2023-04-19T08:18:15;99504.16;;;10.01;100.00
43153;BME280;28756;49.064;9.290;2023-04-19T08:20:40;99498.91;;;10.22;100.00
43153;BME280;28756;49.064;9.290;2023-04-19T08:23:10;99489.97;;;10.47;100.00
43153;BME280;28756;49.064;9.290;2023-04-19T08:25:42;99485.59;;;10.84;100.00
43153;BME280;28756;49.064;9.290;2023-04-19T08:28:10;99484.53;;;11.23;100.00
43153;BME280;28756;49.064;9.290;2023-04-19T08:30:37;99483.81;;;10.67;100.00
43153;BME280;28756;49.064;9.290;2023-04-19T08:33:02;99486.44;;;10.48;100.00
43153;BME280;28756;49.064;9.290;2023-04-19T08:35:28;99485.25;;;10.36;100.00
43153;BME280;28756;49.064;9.290;2023-04-19T08:37:54;99487.78;;;10.56;100.00
43153;BME280;28756;49.064;9.290;2023-04-19T08:40:23;99486.09;;;10.36;100.00
43153;BME280;28756;49.064;9.290;2023-04-19T08:42:52;99482.72;;;10.34;100.00
43153;BME280;28756;49.064;9.290;2023-04-19T08:45:18;99485.19;;;10.18;100.00
43153;BME280;28756;49.064;9.290;2023-04-19T08:47:48;99487.38;;;10.08;100.00
43153;BME280;28756;49.064;9.290;2023-04-19T08:50:14;99481.63;;;10.02;100.00
43153;BME280;28756;49.064;9.290;2023-04-19T08:52:44;99480.72;;;10.22;100.00
43153;BME280;28756;49.064;9.290;2023-04-19T08:55:17;99470.63;;;10.33;100.00
43153;BME280;28756;49.064;9.290;2023-04-19T08:57:42;99471.75;;;10.27;100.00
43153;BME280;28756;49.064;9.290;2023-04-19T09:00:09;99475.31;;;10.46;100.00
43153;BME280;28756;49.064;9.290;2023-04-19T09:02:51;99468.03;;;10.33;100.00
43153;BME280;28756;49.064;9.290;2023-04-19T09:05:19;99461.09;;;10.53;100.00
43153;BME280;28756;49.064;9.290;2023-04-19T09:07:46;99457.84;;;10.48;100.00
43153;BME280;28756;49.064;9.290;2023-04-19T09:10:17;99459.16;;;10.74;100.00
43153;BME280;28756;49.064;9.290;2023-04-19T09:13:00;99452.75;;;10.81;100.00
43153;BME280;28756;49.064;9.290;2023-04-19T09:15:39;99463.16;;;10.81;100.00
43153;BME280;28756;49.064;9.290;2023-04-19T09:18:07;99466.75;;;10.96;100.00
43153;BME280;28756;49.064;9.290;2023-04-19T09:20:38;99460.69;;;10.61;100.00
43153;BME280;28756;49.064;9.290;2023-04-19T09:23:11;99458.66;;;10.67;100.00
43153;BME280;28756;49.064;9.290;2023-04-19T09:28:18;99457.34;;;11.11;100.00
43153;BME280;28756;49.064;9.290;2023-04-19T09:30:45;99449.53;;;10.76;100.00
43153;BME280;28756;49.064;9.290;2023-04-19T09:33:34;99447.78;;;10.94;100.00
43153;BME280;28756;49.064;9.290;2023-04-19T09:36:01;99446.63;;;11.17;100.00
43153;BME280;28756;49.064;9.290;2023-04-19T09:38:27;99443.00;;;11.20;100.00
43153;BME280;28756;49.064;9.290;2023-04-19T09:41:08;99443.56;;;10.92;100.00
43153;BME280;28756;49.064;9.290;2023-04-19T09:43:34;99439.16;;;11.27;100.00
43153;BME280;28756;49.064;9.290;2023-04-19T09:46:00;99435.75;;;11.27;100.00
43153;BME280;28756;49.064;9.290;2023-04-19T09:48:26;99429.63;;;11.28;100.00
43153;BME280;28756;49.064;9.290;2023-04-19T09:50:58;99431.47;;;11.08;100.00
43153;BME280;28756;49.064;9.290;2023-04-19T09:53:29;99426.91;;;10.78;100.00
43153;BME280;28756;49.064;9.290;2023-04-19T09:55:58;99428.50;;;10.63;100.00
43153;BME280;28756;49.064;9.290;2023-04-19T09:58:24;99424.75;;;10.86;100.00
43153;BME280;28756;49.064;9.290;2023-04-19T10:00:50;99427.50;;;10.83;100.00
43153;BME280;28756;49.064;9.290;2023-04-19T10:03:18;99419.69;;;10.83;100.00
43153;BME280;28756;49.064;9.290;2023-04-19T10:05:44;99416.94;;;10.69;100.00
43153;BME280;28756;49.064;9.290;2023-04-19T10:08:14;99423.97;;;10.67;100.00
43153;BME280;28756;49.064;9.290;2023-04-19T10:10:48;99425.13;;;10.79;100.00
43153;BME280;28756;49.064;9.290;2023-04-19T10:13:19;99421.16;;;10.35;100.00
43153;BME280;28756;49.064;9.290;2023-04-19T10:15:48;99422.81;;;10.37;100.00
43153;BME280;28756;49.064;9.290;2023-04-19T10:18:14;99426.63;;;10.11;100.00
43153;BME280;28756;49.064;9.290;2023-04-19T10:20:58;99424.47;;;10.02;100.00
43153;BME280;28756;49.064;9.290;2023-04-19T10:23:25;99425.88;;;9.90;100.00
43153;BME280;28756;49.064;9.290;2023-04-19T10:26:00;99422.84;;;9.80;100.00
43153;BME280;28756;49.064;9.290;2023-04-19T10:28:29;99424.41;;;9.65;100.00
43153;BME280;28756;49.064;9.290;2023-04-19T10:31:05;99423.63;;;9.82;100.00
43153;BME280;28756;49.064;9.290;2023-04-19T10:33:36;99426.34;;;9.79;100.00
43153;BME280;28756;49.064;9.290;2023-04-19T10:36:03;99424.19;;;9.70;100.00
43153;BME280;28756;49.064;9.290;2023-04-19T10:38:43;99426.09;;;9.66;100.00
43153;BME280;28756;49.064;9.290;2023-04-19T10:41:12;99417.66;;;9.80;100.00
43153;BME280;28756;49.064;9.290;2023-04-19T10:49:04;99415.75;;;9.64;100.00
43153;BME280;28756;49.064;9.290;2023-04-19T10:51:38;99405.16;;;9.69;100.00
43153;BME280;28756;49.064;9.290;2023-04-19T10:57:03;99411.63;;;9.60;100.00
43153;BME280;28756;49.064;9.290;2023-04-19T10:59:37;99404.53;;;9.64;100.00
43153;BME280;28756;49.064;9.290;2023-04-19T11:02:27;99409.88;;;9.61;100.00
43153;BME280;28756;49.064;9.290;2023-04-19T11:07:19;99404.59;;;9.43;100.00
43153;BME280;28756;49.064;9.290;2023-04-19T11:09:48;99402.97;;;9.41;100.00
43153;BME280;28756;49.064;9.290;2023-04-19T11:12:18;99400.38;;;9.41;100.00
43153;BME280;28756;49.064;9.290;2023-04-19T11:14:51;99407.81;;;9.29;100.00
43153;BME280;28756;49.064;9.290;2023-04-19T11:17:43;99393.34;;;9.24;100.00
43153;BME280;28756;49.064;9.290;2023-04-19T11:20:10;99400.50;;;9.19;100.00
43153;BME280;28756;49.064;9.290;2023-04-19T11:22:45;99397.75;;;9.22;100.00
43153;BME280;28756;49.064;9.290;2023-04-19T11:25:20;99402.44;;;9.13;100.00
43153;BME280;28756;49.064;9.290;2023-04-19T11:27:52;99389.03;;;9.04;100.00
43153;BME280;28756;49.064;9.290;2023-04-19T11:30:21;99387.94;;;9.09;100.00
43153;BME280;28756;49.064;9.290;2023-04-19T11:32:58;99385.19;;;9.12;100.00
43153;BME280;28756;49.064;9.290;2023-04-19T11:35:30;99377.69;;;9.06;100.00
43153;BME280;28756;49.064;9.290;2023-04-19T11:38:01;99376.50;;;9.13;100.00
43153;BME280;28756;49.064;9.290;2023-04-19T11:40:27;99377.34;;;8.93;100.00
43153;BME280;28756;49.064;9.290;2023-04-19T11:42:55;99369.00;;;9.07;100.00
43153;BME280;28756;49.064;9.290;2023-04-19T11:45:27;99367.69;;;8.97;100.00
43153;BME280;28756;49.064;9.290;2023-04-19T11:47:55;99365.41;;;9.10;100.00
43153;BME280;28756;49.064;9.290;2023-04-19T11:50:44;99371.78;;;9.03;100.00
43153;BME280;28756;49.064;9.290;2023-04-19T11:53:19;99368.59;;;9.16;100.00
43153;BME280;28756;49.064;9.290;2023-04-19T11:55:51;99369.88;;;9.06;100.00
43153;BME280;28756;49.064;9.290;2023-04-19T11:58:41;99371.19;;;8.96;100.00
43153;BME280;28756;49.064;9.290;2023-04-19T12:01:22;99367.88;;;8.92;100.00
43153;BME280;28756;49.064;9.290;2023-04-19T12:03:53;99369.94;;;8.85;100.00
43153;BME280;28756;49.064;9.290;2023-04-19T12:06:29;99365.38;;;8.91;100.00
43153;BME280;28756;49.064;9.290;2023-04-19T12:08:58;99353.63;;;9.03;100.00
43153;BME280;28756;49.064;9.290;2023-04-19T12:11:41;99344.16;;;9.01;100.00
43153;BME280;28756;49.064;9.290;2023-04-19T12:14:21;99348.16;;;9.09;100.00
43153;BME280;28756;49.064;9.290;2023-04-19T12:17:10;99346.06;;;9.17;100.00
43153;BME280;28756;49.064;9.290;2023-04-19T12:19:46;99349.75;;;9.32;100.00
43153;BME280;28756;49.064;9.290;2023-04-19T12:22:17;99354.34;;;9.25;100.00
43153;BME280;28756;49.064;9.290;2023-04-19T12:24:56;99344.53;;;9.32;100.00
43153;BME280;28756;49.064;9.290;2023-04-19T12:27:22;99328.84;;;9.54;100.00
43153;BME280;28756;49.064;9.290;2023-04-19T12:29:47;99329.31;;;9.62;100.00
43153;BME280;28756;49.064;9.290;2023-04-19T12:32:13;99333.75;;;9.60;100.00
43153;BME280;28756;49.064;9.290;2023-04-19T12:34:40;99332.84;;;9.79;100.00
43153;BME280;28756;49.064;9.290;2023-04-19T12:37:06;99320.09;;;10.28;100.00
43153;BME280;28756;49.064;9.290;2023-04-19T12:39:32;99318.56;;;10.07;100.00
43153;BME280;28756;49.064;9.290;2023-04-19T12:41:57;99310.16;;;10.02;100.00
43153;BME280;28756;49.064;9.290;2023-04-19T12:44:23;99313.06;;;10.13;100.00
43153;BME280;28756;49.064;9.290;2023-04-19T12:46:49;99303.53;;;10.14;100.00
43153;BME280;28756;49.064;9.290;2023-04-19T12:49:17;99310.28;;;9.99;100.00
43153;BME280;28756;49.064;9.290;2023-04-19T12:51:44;99299.91;;;10.16;100.00
43153;BME280;28756;49.064;9.290;2023-04-19T12:54:12;99289.59;;;10.32;100.00
43153;BME280;28756;49.064;9.290;2023-04-19T12:56:38;99285.06;;;10.36;100.00
43153;BME280;28756;49.064;9.290;2023-04-19T12:59:04;99282.34;;;10.56;100.00
43153;BME280;28756;49.064;9.290;2023-04-19T13:01:31;99280.53;;;10.41;100.00
43153;BME280;28756;49.064;9.290;2023-04-19T13:03:57;99275.53;;;10.54;100.00
43153;BME280;28756;49.064;9.290;2023-04-19T13:06:23;99271.03;;;11.07;100.00
43153;BME280;28756;49.064;9.290;2023-04-19T13:08:48;99260.53;;;11.57;100.00
43153;BME280;28756;49.064;9.290;2023-04-19T13:11:15;99265.25;;;11.02;100.00
43153;BME280;28756;49.064;9.290;2023-04-19T13:13:47;99254.66;;;11.05;100.00
43153;BME280;28756;49.064;9.290;2023-04-19T13:16:13;99253.66;;;11.24;100.00
43153;BME280;28756;49.064;9.290;2023-04-19T13:18:38;99246.66;;;11.72;100.00